Nearby METAR Reports

 

KBVO - Bartlesville, Oklahoma, USA
Distance from station: WNW 10mi, 16km
Updated: Sat, 24-Jun-2017 9:53pm CDT
Clear
Clear
 Wind from calm
Wind: Calm
Temperature: 63°F , 17°C
Dew Point: 55°F , 13°C
Humidity: 77%
Barometer: 30.22 inHg , 1023.4 hPa
Clouds: Clear
Visibility: 10 miles , 16 km
2017/06/25 02:53 KBVO 250253Z AUTO 00000KT 10SM CLR 17/13 A3022 RMK AO2 SLP224 T01720133 53021
KCFV - Coffeyville, Kansas, USA
Distance from station: NNE 31mi, 49km
Updated: Sat, 24-Jun-2017 9:52pm CDT
Clear
Clear
 Wind from ESE
Wind: ESE 5 mph , 7 km/h
Temperature: 70°F , 21°C
Dew Point: 54°F , 12°C
Humidity: 57%
Barometer: 30.21 inHg , 1023 hPa
Clouds: Clear
Visibility: 10 miles , 16 km
2017/06/25 02:52 KCFV 250252Z AUTO 11004KT 10SM CLR 21/12 A3021 RMK AO2 SLP224 T02060117 53019
 
KIDP - Independence, Kansas, USA
Distance from station: N 32mi, 52km
Updated: Sat, 24-Jun-2017 10:15pm CDT
Clear
Clear
 Wind from E
Wind: E 5 mph , 7 km/h
Temperature: 70°F , 21°C
Dew Point: 48°F , 9°C
Humidity: 46%
Barometer: 30.22 inHg , 1023.4 hPa
Clouds: Clear
Visibility: 10 miles , 16 km
2017/06/25 03:15 KIDP 250315Z AUTO 10004KT 10SM CLR 21/09 A3022 RMK AO2
KGCM - Claremore, Oklahoma, USA
Distance from station: SE 35mi, 56km
Updated: Sat, 24-Jun-2017 10:15pm CDT
Partly cloudy
Partly cloudy
 Wind from calm
Wind: Calm
Temperature: 63°F , 17°C
Dew Point: 55°F , 13°C
Humidity: 77%
Barometer: 30.23 inHg , 1023.7 hPa
Clouds: Partly cloudy
Visibility: 10 miles , 16 km
Cloud details: Partly cloudy 12000 ft
2017/06/25 03:15 KGCM 250315Z AUTO 00000KT 10SM SCT120 17/13 A3023 RMK AO2
 
KTUL - Tulsa, Oklahoma, USA
Distance from station: S 35mi, 56km
Updated: Sat, 24-Jun-2017 9:53pm CDT
Few Clouds
Few Clouds
 Wind from E
Wind: E 5 mph , 7 km/h
Temperature: 73°F , 23°C
Dew Point: 57°F , 14°C
Humidity: 57%
Barometer: 30.18 inHg , 1022 hPa
Clouds: Few Clouds
Visibility: 10 miles , 16 km
Cloud details: Few Clouds 8000 ft
2017/06/25 02:53 KTUL 250253Z 08004KT 10SM FEW080 23/14 A3018 RMK AO2 SLP214 T02280139 53022
KRVS - Tulsa, Oklahoma, USA
Distance from station: S 46mi, 74km
Updated: Sat, 24-Jun-2017 9:53pm CDT
Clear
Clear
 Wind from ENE
Wind: ENE 6 mph , 9 km/h
Temperature: 75°F , 24°C
Dew Point: 52°F , 11°C
Humidity: 44%
Barometer: 30.19 inHg , 1022.4 hPa
Clouds: Clear
Visibility: 10 miles , 16 km
2017/06/25 02:53 KRVS 250253Z 07005KT 10SM CLR 24/11 A3019 RMK AO2 SLP227 T02440111 53020
 
KPPF - Parsons, Kansas, USA
Distance from station: NNE 48mi, 76km
Updated: Sat, 24-Jun-2017 9:52pm CDT
Few Clouds
Few Clouds
 Wind from calm
Wind: Calm
Temperature: 63°F , 17°C
Dew Point: 54°F , 12°C
Humidity: 73%
Barometer: 30.22 inHg , 1023.4 hPa
Clouds: Few Clouds
Visibility: 10 miles , 16 km
Cloud details: Few Clouds 11000 ft
2017/06/25 02:52 KPPF 250252Z AUTO 00000KT 10SM FEW110 17/12 A3022 RMK AO2 SLP227 T01670122 53017
KGMJ - Grove, Oklahoma, USA
Distance from station: E 63mi, 101km
Updated: Sat, 24-Jun-2017 10:15pm CDT
Mostly cloudy
Mostly cloudy
 Wind from calm
Wind: Calm
Temperature: 68°F , 20°C
Dew Point: 61°F , 16°C
Humidity: 78%
Barometer: 30.23 inHg , 1023.7 hPa
Clouds: Mostly cloudy
Visibility: 10 miles , 16 km
Cloud details: Mostly cloudy 12000 ft
2017/06/25 03:15 KGMJ 250315Z AUTO 00000KT 10SM BKN120 20/16 A3023 RMK AO2
 
KPNC - Ponca City, Oklahoma, USA
Distance from station: W 69mi, 111km
Updated: Sat, 24-Jun-2017 9:53pm CDT
Clear
Clear
 Wind from E
Wind: E 8 mph , 13 km/h
Temperature: 73°F , 23°C
Dew Point: 55°F , 13°C
Humidity: 53%
Barometer: 30.20 inHg , 1022.7 hPa
Clouds: Clear
Visibility: 10 miles , 16 km
2017/06/25 02:53 KPNC 250253Z AUTO 09007KT 10SM CLR 23/13 A3020 RMK AO2 SLP214 T02330128 53018
KCNU - Chanute, Kansas, USA
Distance from station: NNE 69mi, 112km
Updated: Sat, 24-Jun-2017 9:52pm CDT
Partly cloudy
Partly cloudy
 Wind from ESE
Wind: ESE 3 mph , 6 km/h
Temperature: 66°F , 19°C
Dew Point: 48°F , 9°C
Humidity: 52%
Barometer: 30.21 inHg , 1023 hPa
Clouds: Partly cloudy
Visibility: 10 miles , 16 km
Cloud details: Partly cloudy 10000 ft
2017/06/25 02:52 KCNU 250252Z AUTO 11003KT 10SM SCT100 19/09 A3021 RMK AO2 SLP221 T01940089 53013 $